Terminal Aerodrome Forecast
Issued by NWS

Current Version | Previous Version | Text Only | Print | Product List | Glossary On
Versions: 1 2 3 4 5 6 7 8 9 10 11 12 13 14 15 16
000
FTUS46 KMTR 010527
TAFSNS
TAF
KSNS 010527Z 0106/0206 29008KT P6SM FEW015
      TEMPO 0106/0108 BKN010
     FM010800 29004KT P6SM OVC007
     FM011800 29012KT P6SM FEW012
     FM020300 29009KT P6SM BKN009=

USA.gov is the U.S. government's official web portal to all federal, state and local government web resources and services.